sensor_id;sensor_type;location;lat;lon;timestamp;temperature;humidity
36690;DHT22;22676;51.120;3.702;2023-04-03T00:00:09;22.00;40.40
36690;DHT22;22676;51.120;3.702;2023-04-03T00:02:35;22.00;40.50
36690;DHT22;22676;51.120;3.702;2023-04-03T00:05:01;22.00;40.50
36690;DHT22;22676;51.120;3.702;2023-04-03T00:07:26;21.90;40.70
36690;DHT22;22676;51.120;3.702;2023-04-03T00:09:52;21.90;40.60
36690;DHT22;22676;51.120;3.702;2023-04-03T00:12:17;21.90;40.60
36690;DHT22;22676;51.120;3.702;2023-04-03T00:14:43;21.90;40.60
36690;DHT22;22676;51.120;3.702;2023-04-03T00:17:08;22.00;40.50
36690;DHT22;22676;51.120;3.702;2023-04-03T00:19:34;22.00;40.50
36690;DHT22;22676;51.120;3.702;2023-04-03T00:22:00;22.00;40.40
36690;DHT22;22676;51.120;3.702;2023-04-03T00:24:25;22.00;40.50
36690;DHT22;22676;51.120;3.702;2023-04-03T00:26:51;22.00;40.40
36690;DHT22;22676;51.120;3.702;2023-04-03T00:29:17;22.00;40.30
36690;DHT22;22676;51.120;3.702;2023-04-03T00:31:42;22.10;40.30
36690;DHT22;22676;51.120;3.702;2023-04-03T00:34:08;22.00;40.30
36690;DHT22;22676;51.120;3.702;2023-04-03T00:36:33;22.00;40.20
36690;DHT22;22676;51.120;3.702;2023-04-03T00:38:59;22.00;40.40
36690;DHT22;22676;51.120;3.702;2023-04-03T00:41:24;21.90;40.50
36690;DHT22;22676;51.120;3.702;2023-04-03T00:43:50;22.00;40.40
36690;DHT22;22676;51.120;3.702;2023-04-03T00:46:16;21.90;40.40
36690;DHT22;22676;51.120;3.702;2023-04-03T00:48:43;21.90;40.60
36690;DHT22;22676;51.120;3.702;2023-04-03T00:51:11;21.90;40.40
36690;DHT22;22676;51.120;3.702;2023-04-03T00:53:48;22.00;40.40
36690;DHT22;22676;51.120;3.702;2023-04-03T00:56:15;22.00;40.30
36690;DHT22;22676;51.120;3.702;2023-04-03T00:58:52;22.10;40.30
36690;DHT22;22676;51.120;3.702;2023-04-03T01:01:21;22.00;40.30
36690;DHT22;22676;51.120;3.702;2023-04-03T01:03:48;22.00;40.30
36690;DHT22;22676;51.120;3.702;2023-04-03T01:06:14;22.00;40.30
36690;DHT22;22676;51.120;3.702;2023-04-03T01:08:41;22.00;40.50
36690;DHT22;22676;51.120;3.702;2023-04-03T01:11:07;22.00;40.40
36690;DHT22;22676;51.120;3.702;2023-04-03T01:13:33;22.00;40.50
36690;DHT22;22676;51.120;3.702;2023-04-03T01:16:03;22.00;40.40
36690;DHT22;22676;51.120;3.702;2023-04-03T01:18:29;21.90;40.40
36690;DHT22;22676;51.120;3.702;2023-04-03T01:21:08;21.90;40.40
36690;DHT22;22676;51.120;3.702;2023-04-03T01:26:05;22.00;40.20
36690;DHT22;22676;51.120;3.702;2023-04-03T01:28:32;22.10;40.10
36690;DHT22;22676;51.120;3.702;2023-04-03T01:33:23;22.10;40.00
36690;DHT22;22676;51.120;3.702;2023-04-03T01:35:49;22.00;40.10
36690;DHT22;22676;51.120;3.702;2023-04-03T01:38:14;22.00;40.10
36690;DHT22;22676;51.120;3.702;2023-04-03T01:40:40;22.00;40.20
36690;DHT22;22676;51.120;3.702;2023-04-03T01:43:05;22.00;40.20
36690;DHT22;22676;51.120;3.702;2023-04-03T01:45:31;22.00;40.30
36690;DHT22;22676;51.120;3.702;2023-04-03T01:47:57;22.00;40.10
36690;DHT22;22676;51.120;3.702;2023-04-03T01:50:22;22.10;40.00
36690;DHT22;22676;51.120;3.702;2023-04-03T01:52:48;22.10;39.90
36690;DHT22;22676;51.120;3.702;2023-04-03T01:55:13;22.10;39.90
36690;DHT22;22676;51.120;3.702;2023-04-03T01:57:39;22.10;39.90
36690;DHT22;22676;51.120;3.702;2023-04-03T02:00:05;22.10;40.00
36690;DHT22;22676;51.120;3.702;2023-04-03T02:02:30;22.00;40.00
36690;DHT22;22676;51.120;3.702;2023-04-03T02:04:56;22.00;40.20
36690;DHT22;22676;51.120;3.702;2023-04-03T02:07:21;22.00;40.10
36690;DHT22;22676;51.120;3.702;2023-04-03T02:09:47;22.00;40.00
36690;DHT22;22676;51.120;3.702;2023-04-03T02:12:13;21.90;40.20
36690;DHT22;22676;51.120;3.702;2023-04-03T02:14:38;22.00;40.00
36690;DHT22;22676;51.120;3.702;2023-04-03T02:17:04;22.00;40.20
36690;DHT22;22676;51.120;3.702;2023-04-03T02:19:36;22.00;40.00
36690;DHT22;22676;51.120;3.702;2023-04-03T02:22:02;22.00;40.00
36690;DHT22;22676;51.120;3.702;2023-04-03T02:24:28;22.00;40.00
36690;DHT22;22676;51.120;3.702;2023-04-03T02:26:53;22.00;40.00
36690;DHT22;22676;51.120;3.702;2023-04-03T02:29:19;22.10;40.00
36690;DHT22;22676;51.120;3.702;2023-04-03T02:31:45;22.00;40.00
36690;DHT22;22676;51.120;3.702;2023-04-03T02:34:10;22.10;40.00
36690;DHT22;22676;51.120;3.702;2023-04-03T02:36:36;22.00;39.90
36690;DHT22;22676;51.120;3.702;2023-04-03T02:39:02;22.10;39.90
36690;DHT22;22676;51.120;3.702;2023-04-03T02:41:28;22.10;39.90
36690;DHT22;22676;51.120;3.702;2023-04-03T02:44:00;22.00;39.90
36690;DHT22;22676;51.120;3.702;2023-04-03T02:46:26;22.00;40.00
36690;DHT22;22676;51.120;3.702;2023-04-03T02:48:52;22.10;39.90
36690;DHT22;22676;51.120;3.702;2023-04-03T02:51:17;22.00;39.90
36690;DHT22;22676;51.120;3.702;2023-04-03T02:53:43;22.10;39.90
36690;DHT22;22676;51.120;3.702;2023-04-03T02:56:08;22.00;39.80
36690;DHT22;22676;51.120;3.702;2023-04-03T02:58:34;22.10;39.80
36690;DHT22;22676;51.120;3.702;2023-04-03T03:01:00;22.10;39.80
36690;DHT22;22676;51.120;3.702;2023-04-03T03:03:26;22.00;39.90
36690;DHT22;22676;51.120;3.702;2023-04-03T03:06:08;22.00;39.90
36690;DHT22;22676;51.120;3.702;2023-04-03T03:08:34;22.00;39.90
36690;DHT22;22676;51.120;3.702;2023-04-03T03:11:00;22.00;40.00
36690;DHT22;22676;51.120;3.702;2023-04-03T03:13:25;22.00;39.80
36690;DHT22;22676;51.120;3.702;2023-04-03T03:15:51;22.00;39.80
36690;DHT22;22676;51.120;3.702;2023-04-03T03:18:17;22.10;39.80
36690;DHT22;22676;51.120;3.702;2023-04-03T03:20:42;22.00;40.00
36690;DHT22;22676;51.120;3.702;2023-04-03T03:23:08;21.90;40.00
36690;DHT22;22676;51.120;3.702;2023-04-03T03:25:37;21.90;40.20
36690;DHT22;22676;51.120;3.702;2023-04-03T03:28:02;21.90;40.10
36690;DHT22;22676;51.120;3.702;2023-04-03T03:30:28;21.80;40.30
36690;DHT22;22676;51.120;3.702;2023-04-03T03:32:53;21.70;40.40
36690;DHT22;22676;51.120;3.702;2023-04-03T03:35:19;21.70;40.30
36690;DHT22;22676;51.120;3.702;2023-04-03T03:37:45;21.80;40.30
36690;DHT22;22676;51.120;3.702;2023-04-03T03:40:10;21.80;40.20
36690;DHT22;22676;51.120;3.702;2023-04-03T03:42:38;21.80;40.30
36690;DHT22;22676;51.120;3.702;2023-04-03T03:45:04;21.70;40.30
36690;DHT22;22676;51.120;3.702;2023-04-03T03:47:29;21.70;40.30
36690;DHT22;22676;51.120;3.702;2023-04-03T03:49:55;21.70;40.20
36690;DHT22;22676;51.120;3.702;2023-04-03T03:52:20;21.70;40.20
36690;DHT22;22676;51.120;3.702;2023-04-03T03:54:46;21.70;40.20
36690;DHT22;22676;51.120;3.702;2023-04-03T03:57:12;21.80;40.20
36690;DHT22;22676;51.120;3.702;2023-04-03T03:59:37;21.80;40.20
36690;DHT22;22676;51.120;3.702;2023-04-03T04:02:03;21.80;40.20
36690;DHT22;22676;51.120;3.702;2023-04-03T04:04:28;21.80;40.00
36690;DHT22;22676;51.120;3.702;2023-04-03T04:06:54;21.80;39.90
36690;DHT22;22676;51.120;3.702;2023-04-03T04:09:20;21.80;40.00
36690;DHT22;22676;51.120;3.702;2023-04-03T04:11:45;21.80;40.00
36690;DHT22;22676;51.120;3.702;2023-04-03T04:14:11;21.70;40.00
36690;DHT22;22676;51.120;3.702;2023-04-03T04:16:38;21.70;40.10
36690;DHT22;22676;51.120;3.702;2023-04-03T04:19:04;21.70;40.10
36690;DHT22;22676;51.120;3.702;2023-04-03T04:21:30;21.80;40.10
36690;DHT22;22676;51.120;3.702;2023-04-03T04:23:55;21.80;40.00
36690;DHT22;22676;51.120;3.702;2023-04-03T04:26:21;21.80;40.00
36690;DHT22;22676;51.120;3.702;2023-04-03T04:28:46;21.80;40.00
36690;DHT22;22676;51.120;3.702;2023-04-03T04:31:12;21.80;39.90
36690;DHT22;22676;51.120;3.702;2023-04-03T04:33:37;21.90;39.80
36690;DHT22;22676;51.120;3.702;2023-04-03T04:36:03;21.90;39.70
36690;DHT22;22676;51.120;3.702;2023-04-03T04:38:28;21.90;39.70
36690;DHT22;22676;51.120;3.702;2023-04-03T04:40:54;21.80;39.70
36690;DHT22;22676;51.120;3.702;2023-04-03T04:43:19;21.80;39.80
36690;DHT22;22676;51.120;3.702;2023-04-03T04:45:45;21.80;39.70
36690;DHT22;22676;51.120;3.702;2023-04-03T04:48:11;21.90;39.60
36690;DHT22;22676;51.120;3.702;2023-04-03T04:50:36;21.90;39.60
36690;DHT22;22676;51.120;3.702;2023-04-03T04:53:04;22.00;39.50
36690;DHT22;22676;51.120;3.702;2023-04-03T04:55:29;22.00;39.50
36690;DHT22;22676;51.120;3.702;2023-04-03T04:57:55;21.70;39.90
36690;DHT22;22676;51.120;3.702;2023-04-03T05:00:20;21.60;40.20
36690;DHT22;22676;51.120;3.702;2023-04-03T05:02:46;21.60;39.80
36690;DHT22;22676;51.120;3.702;2023-04-03T05:05:12;21.80;39.80
36690;DHT22;22676;51.120;3.702;2023-04-03T05:07:37;21.90;39.70
36690;DHT22;22676;51.120;3.702;2023-04-03T05:10:03;21.90;39.50
36690;DHT22;22676;51.120;3.702;2023-04-03T05:12:29;21.90;39.50
36690;DHT22;22676;51.120;3.702;2023-04-03T05:14:54;22.10;39.30
36690;DHT22;22676;51.120;3.702;2023-04-03T05:17:20;22.10;39.30
36690;DHT22;22676;51.120;3.702;2023-04-03T05:19:45;22.00;39.20
36690;DHT22;22676;51.120;3.702;2023-04-03T05:22:11;22.10;39.20
36690;DHT22;22676;51.120;3.702;2023-04-03T05:24:37;21.70;39.60
36690;DHT22;22676;51.120;3.702;2023-04-03T05:27:02;21.60;39.70
36690;DHT22;22676;51.120;3.702;2023-04-03T05:29:28;21.60;39.50
36690;DHT22;22676;51.120;3.702;2023-04-03T05:31:53;21.70;39.40
36690;DHT22;22676;51.120;3.702;2023-04-03T05:34:19;21.90;39.30
36690;DHT22;22676;51.120;3.702;2023-04-03T05:36:45;22.00;39.20
36690;DHT22;22676;51.120;3.702;2023-04-03T05:39:10;22.00;39.60
36690;DHT22;22676;51.120;3.702;2023-04-03T05:41:36;22.10;38.90
36690;DHT22;22676;51.120;3.702;2023-04-03T05:44:01;22.00;38.90
36690;DHT22;22676;51.120;3.702;2023-04-03T05:46:27;22.00;38.90
36690;DHT22;22676;51.120;3.702;2023-04-03T05:48:53;22.00;38.90
36690;DHT22;22676;51.120;3.702;2023-04-03T05:51:22;22.00;39.00
36690;DHT22;22676;51.120;3.702;2023-04-03T05:53:48;21.80;39.40
36690;DHT22;22676;51.120;3.702;2023-04-03T05:56:17;21.70;39.50
36690;DHT22;22676;51.120;3.702;2023-04-03T05:58:43;21.70;39.50
36690;DHT22;22676;51.120;3.702;2023-04-03T06:01:08;21.80;39.40
36690;DHT22;22676;51.120;3.702;2023-04-03T06:03:34;21.90;39.20
36690;DHT22;22676;51.120;3.702;2023-04-03T06:06:02;22.00;39.10
36690;DHT22;22676;51.120;3.702;2023-04-03T06:08:28;22.00;39.00
36690;DHT22;22676;51.120;3.702;2023-04-03T06:10:54;22.00;39.00
36690;DHT22;22676;51.120;3.702;2023-04-03T06:13:20;22.00;39.10
36690;DHT22;22676;51.120;3.702;2023-04-03T06:15:45;22.00;39.10
36690;DHT22;22676;51.120;3.702;2023-04-03T06:18:11;21.80;39.30
36690;DHT22;22676;51.120;3.702;2023-04-03T06:20:37;21.80;39.20
36690;DHT22;22676;51.120;3.702;2023-04-03T06:23:03;21.90;39.20
36690;DHT22;22676;51.120;3.702;2023-04-03T06:25:28;21.80;39.20
36690;DHT22;22676;51.120;3.702;2023-04-03T06:27:54;21.80;39.30
36690;DHT22;22676;51.120;3.702;2023-04-03T06:30:20;21.60;39.60
36690;DHT22;22676;51.120;3.702;2023-04-03T06:32:46;21.60;39.80
36690;DHT22;22676;51.120;3.702;2023-04-03T06:35:12;21.60;39.60
36690;DHT22;22676;51.120;3.702;2023-04-03T06:37:37;21.60;39.50
36690;DHT22;22676;51.120;3.702;2023-04-03T06:40:03;21.70;39.50
36690;DHT22;22676;51.120;3.702;2023-04-03T06:42:29;21.80;39.40
36690;DHT22;22676;51.120;3.702;2023-04-03T06:44:55;21.80;39.30
36690;DHT22;22676;51.120;3.702;2023-04-03T06:47:21;21.90;39.20
36690;DHT22;22676;51.120;3.702;2023-04-03T06:49:46;21.80;40.10
36690;DHT22;22676;51.120;3.702;2023-04-03T06:52:12;21.80;39.40
36690;DHT22;22676;51.120;3.702;2023-04-03T06:54:38;21.90;39.30
36690;DHT22;22676;51.120;3.702;2023-04-03T06:57:04;21.90;39.30
36690;DHT22;22676;51.120;3.702;2023-04-03T06:59:30;21.90;39.30
36690;DHT22;22676;51.120;3.702;2023-04-03T07:01:55;21.80;39.30
36690;DHT22;22676;51.120;3.702;2023-04-03T07:04:21;21.90;39.20
36690;DHT22;22676;51.120;3.702;2023-04-03T07:06:47;21.90;39.10
36690;DHT22;22676;51.120;3.702;2023-04-03T07:09:15;22.00;39.10
36690;DHT22;22676;51.120;3.702;2023-04-03T07:11:40;22.00;39.00
36690;DHT22;22676;51.120;3.702;2023-04-03T07:14:06;21.90;39.10
36690;DHT22;22676;51.120;3.702;2023-04-03T07:16:33;21.90;39.20
36690;DHT22;22676;51.120;3.702;2023-04-03T07:18:59;21.80;39.30
36690;DHT22;22676;51.120;3.702;2023-04-03T07:21:25;21.90;39.10
36690;DHT22;22676;51.120;3.702;2023-04-03T07:23:51;21.90;39.10
36690;DHT22;22676;51.120;3.702;2023-04-03T07:26:17;22.00;39.00
36690;DHT22;22676;51.120;3.702;2023-04-03T07:28:43;21.90;39.00
36690;DHT22;22676;51.120;3.702;2023-04-03T07:31:12;21.90;39.00
36690;DHT22;22676;51.120;3.702;2023-04-03T07:33:38;21.90;39.00
36690;DHT22;22676;51.120;3.702;2023-04-03T07:36:04;22.00;38.90
36690;DHT22;22676;51.120;3.702;2023-04-03T07:38:32;22.00;38.80
36690;DHT22;22676;51.120;3.702;2023-04-03T07:40:58;22.00;38.90
36690;DHT22;22676;51.120;3.702;2023-04-03T07:43:23;22.00;38.90
36690;DHT22;22676;51.120;3.702;2023-04-03T07:45:50;22.00;38.90
36690;DHT22;22676;51.120;3.702;2023-04-03T07:48:23;22.10;38.80
36690;DHT22;22676;51.120;3.702;2023-04-03T07:50:49;22.00;38.80
36690;DHT22;22676;51.120;3.702;2023-04-03T07:53:14;22.10;38.80
36690;DHT22;22676;51.120;3.702;2023-04-03T07:55:40;22.10;38.70
36690;DHT22;22676;51.120;3.702;2023-04-03T07:58:13;22.00;38.70
36690;DHT22;22676;51.120;3.702;2023-04-03T08:00:39;22.00;38.70
36690;DHT22;22676;51.120;3.702;2023-04-03T08:03:06;21.70;39.30
36690;DHT22;22676;51.120;3.702;2023-04-03T08:05:34;21.70;39.50
36690;DHT22;22676;51.120;3.702;2023-04-03T08:08:01;21.70;39.30
36690;DHT22;22676;51.120;3.702;2023-04-03T08:10:26;21.80;39.30
36690;DHT22;22676;51.120;3.702;2023-04-03T08:12:52;21.90;38.90
36690;DHT22;22676;51.120;3.702;2023-04-03T08:15:18;22.00;39.00
36690;DHT22;22676;51.120;3.702;2023-04-03T08:17:43;22.00;38.90
36690;DHT22;22676;51.120;3.702;2023-04-03T08:20:09;22.00;38.80
36690;DHT22;22676;51.120;3.702;2023-04-03T08:22:35;22.20;38.50
36690;DHT22;22676;51.120;3.702;2023-04-03T08:25:00;22.20;38.50
36690;DHT22;22676;51.120;3.702;2023-04-03T08:27:27;22.20;38.40
36690;DHT22;22676;51.120;3.702;2023-04-03T08:29:54;22.20;38.40
36690;DHT22;22676;51.120;3.702;2023-04-03T08:32:19;22.20;38.40
36690;DHT22;22676;51.120;3.702;2023-04-03T08:34:45;22.20;38.40
36690;DHT22;22676;51.120;3.702;2023-04-03T08:37:11;22.30;38.40
36690;DHT22;22676;51.120;3.702;2023-04-03T08:39:37;22.30;38.30
36690;DHT22;22676;51.120;3.702;2023-04-03T08:42:03;22.30;38.30
36690;DHT22;22676;51.120;3.702;2023-04-03T08:47:10;22.30;38.30
36690;DHT22;22676;51.120;3.702;2023-04-03T08:49:42;22.20;38.30
36690;DHT22;22676;51.120;3.702;2023-04-03T08:52:21;22.30;38.40
36690;DHT22;22676;51.120;3.702;2023-04-03T08:54:49;22.30;38.30
36690;DHT22;22676;51.120;3.702;2023-04-03T08:57:16;22.30;38.30
36690;DHT22;22676;51.120;3.702;2023-04-03T08:59:42;22.30;38.40
36690;DHT22;22676;51.120;3.702;2023-04-03T09:02:29;22.30;38.20
36690;DHT22;22676;51.120;3.702;2023-04-03T09:04:56;22.30;38.20
36690;DHT22;22676;51.120;3.702;2023-04-03T09:07:24;22.30;38.20
36690;DHT22;22676;51.120;3.702;2023-04-03T09:09:50;22.30;38.20
36690;DHT22;22676;51.120;3.702;2023-04-03T09:22:27;22.40;37.90
36690;DHT22;22676;51.120;3.702;2023-04-03T09:25:00;22.40;37.90
36690;DHT22;22676;51.120;3.702;2023-04-03T09:27:27;22.40;37.90
36690;DHT22;22676;51.120;3.702;2023-04-03T09:29:56;22.40;37.80
36690;DHT22;22676;51.120;3.702;2023-04-03T09:32:32;22.40;37.90
36690;DHT22;22676;51.120;3.702;2023-04-03T09:35:01;22.40;37.90
36690;DHT22;22676;51.120;3.702;2023-04-03T09:37:41;22.50;37.70
36690;DHT22;22676;51.120;3.702;2023-04-03T09:42:52;22.50;37.80
36690;DHT22;22676;51.120;3.702;2023-04-03T09:45:26;22.50;37.70
36690;DHT22;22676;51.120;3.702;2023-04-03T09:50:36;22.50;37.70
36690;DHT22;22676;51.120;3.702;2023-04-03T09:53:06;22.50;37.70
36690;DHT22;22676;51.120;3.702;2023-04-03T09:55:33;22.50;37.60
36690;DHT22;22676;51.120;3.702;2023-04-03T09:58:20;22.50;37.70
36690;DHT22;22676;51.120;3.702;2023-04-03T10:00:53;22.50;37.70
36690;DHT22;22676;51.120;3.702;2023-04-03T10:03:24;22.50;37.70
36690;DHT22;22676;51.120;3.702;2023-04-03T10:05:50;22.50;37.60
36690;DHT22;22676;51.120;3.702;2023-04-03T10:08:24;22.50;37.60
36690;DHT22;22676;51.120;3.702;2023-04-03T10:11:05;22.50;37.70
36690;DHT22;22676;51.120;3.702;2023-04-03T10:13:31;22.50;37.70
36690;DHT22;22676;51.120;3.702;2023-04-03T10:16:01;22.60;37.60
36690;DHT22;22676;51.120;3.702;2023-04-03T10:18:33;22.60;37.50
36690;DHT22;22676;51.120;3.702;2023-04-03T10:21:26;22.60;37.50
36690;DHT22;22676;51.120;3.702;2023-04-03T10:24:44;22.60;37.60
36690;DHT22;22676;51.120;3.702;2023-04-03T10:29:21;22.60;37.50
36690;DHT22;22676;51.120;3.702;2023-04-03T10:34:35;22.50;37.70
36690;DHT22;22676;51.120;3.702;2023-04-03T10:47:47;22.40;38.10
36690;DHT22;22676;51.120;3.702;2023-04-03T10:50:29;22.40;38.20
36690;DHT22;22676;51.120;3.702;2023-04-03T10:53:08;22.40;38.10
36690;DHT22;22676;51.120;3.702;2023-04-03T10:58:03;22.40;38.10
36690;DHT22;22676;51.120;3.702;2023-04-03T11:03:06;22.50;38.00
36690;DHT22;22676;51.120;3.702;2023-04-03T11:05:45;22.60;38.00
36690;DHT22;22676;51.120;3.702;2023-04-03T11:10:46;22.60;38.00
36690;DHT22;22676;51.120;3.702;2023-04-03T11:13:15;22.60;38.00
36690;DHT22;22676;51.120;3.702;2023-04-03T11:15:41;22.60;37.90
36690;DHT22;22676;51.120;3.702;2023-04-03T11:18:11;22.60;38.40
36690;DHT22;22676;51.120;3.702;2023-04-03T11:20:37;22.60;37.80
36690;DHT22;22676;51.120;3.702;2023-04-03T11:25:50;22.60;37.90
36690;DHT22;22676;51.120;3.702;2023-04-03T11:28:17;22.70;37.80
36690;DHT22;22676;51.120;3.702;2023-04-03T11:35:51;22.60;38.00
36690;DHT22;22676;51.120;3.702;2023-04-03T11:38:19;22.60;38.10
36690;DHT22;22676;51.120;3.702;2023-04-03T11:40:47;22.60;38.00
36690;DHT22;22676;51.120;3.702;2023-04-03T11:50:52;22.70;37.90
36690;DHT22;22676;51.120;3.702;2023-04-03T11:58:19;22.70;37.90
36690;DHT22;22676;51.120;3.702;2023-04-03T12:05:49;22.70;37.90
36690;DHT22;22676;51.120;3.702;2023-04-03T12:08:43;22.80;37.90
36690;DHT22;22676;51.120;3.702;2023-04-03T12:16:19;22.90;37.60
36690;DHT22;22676;51.120;3.702;2023-04-03T12:21:14;22.90;37.60
36690;DHT22;22676;51.120;3.702;2023-04-03T12:26:22;22.90;37.50
36690;DHT22;22676;51.120;3.702;2023-04-03T12:28:50;22.90;37.50
36690;DHT22;22676;51.120;3.702;2023-04-03T12:31:18;23.00;37.50
36690;DHT22;22676;51.120;3.702;2023-04-03T12:36:18;22.90;37.40
36690;DHT22;22676;51.120;3.702;2023-04-03T12:38:56;22.90;37.50
36690;DHT22;22676;51.120;3.702;2023-04-03T12:41:37;23.00;37.50
36690;DHT22;22676;51.120;3.702;2023-04-03T12:46:52;23.00;37.40
36690;DHT22;22676;51.120;3.702;2023-04-03T12:54:47;23.10;37.20
36690;DHT22;22676;51.120;3.702;2023-04-03T12:57:17;23.10;37.20
36690;DHT22;22676;51.120;3.702;2023-04-03T12:59:43;23.10;37.20
36690;DHT22;22676;51.120;3.702;2023-04-03T13:02:20;23.20;37.10
36690;DHT22;22676;51.120;3.702;2023-04-03T13:04:46;23.20;37.10
36690;DHT22;22676;51.120;3.702;2023-04-03T13:07:19;23.10;37.10
36690;DHT22;22676;51.120;3.702;2023-04-03T13:09:47;23.10;37.10
36690;DHT22;22676;51.120;3.702;2023-04-03T13:12:20;23.10;37.20
36690;DHT22;22676;51.120;3.702;2023-04-03T13:14:53;23.10;37.20
36690;DHT22;22676;51.120;3.702;2023-04-03T13:17:19;23.10;37.10
36690;DHT22;22676;51.120;3.702;2023-04-03T13:19:46;23.10;37.10
36690;DHT22;22676;51.120;3.702;2023-04-03T13:24:44;23.20;37.10
36690;DHT22;22676;51.120;3.702;2023-04-03T13:27:11;23.10;37.00
36690;DHT22;22676;51.120;3.702;2023-04-03T13:29:38;23.20;37.00
36690;DHT22;22676;51.120;3.702;2023-04-03T13:32:05;23.10;37.00
36690;DHT22;22676;51.120;3.702;2023-04-03T13:34:42;23.10;37.00
36690;DHT22;22676;51.120;3.702;2023-04-03T13:37:19;23.10;37.00
36690;DHT22;22676;51.120;3.702;2023-04-03T13:39:45;23.10;37.10
36690;DHT22;22676;51.120;3.702;2023-04-03T13:42:21;23.00;37.10
36690;DHT22;22676;51.120;3.702;2023-04-03T13:44:48;23.00;37.20
36690;DHT22;22676;51.120;3.702;2023-04-03T13:49:41;22.90;37.20
36690;DHT22;22676;51.120;3.702;2023-04-03T13:54:56;22.90;37.30
36690;DHT22;22676;51.120;3.702;2023-04-03T13:57:22;22.90;37.30
36690;DHT22;22676;51.120;3.702;2023-04-03T13:59:48;22.90;37.30
36690;DHT22;22676;51.120;3.702;2023-04-03T14:02:23;22.80;37.30
36690;DHT22;22676;51.120;3.702;2023-04-03T14:04:55;22.80;37.50
36690;DHT22;22676;51.120;3.702;2023-04-03T14:07:24;22.80;37.50
36690;DHT22;22676;51.120;3.702;2023-04-03T14:09:49;22.80;37.50
36690;DHT22;22676;51.120;3.702;2023-04-03T14:12:21;22.80;37.60
36690;DHT22;22676;51.120;3.702;2023-04-03T14:14:49;22.80;37.60
36690;DHT22;22676;51.120;3.702;2023-04-03T14:17:20;22.70;37.60
36690;DHT22;22676;51.120;3.702;2023-04-03T14:19:46;22.80;37.60
36690;DHT22;22676;51.120;3.702;2023-04-03T14:22:14;22.70;37.70
36690;DHT22;22676;51.120;3.702;2023-04-03T14:24:40;22.80;37.70
36690;DHT22;22676;51.120;3.702;2023-04-03T14:27:11;22.80;37.70
36690;DHT22;22676;51.120;3.702;2023-04-03T14:29:38;22.70;37.70
36690;DHT22;22676;51.120;3.702;2023-04-03T14:32:04;22.70;37.70
36690;DHT22;22676;51.120;3.702;2023-04-03T14:34:30;22.70;37.80
36690;DHT22;22676;51.120;3.702;2023-04-03T14:36:55;22.80;37.70
36690;DHT22;22676;51.120;3.702;2023-04-03T14:39:21;22.80;37.60
36690;DHT22;22676;51.120;3.702;2023-04-03T14:41:47;22.80;37.60
36690;DHT22;22676;51.120;3.702;2023-04-03T14:44:13;22.80;37.60
36690;DHT22;22676;51.120;3.702;2023-04-03T14:46:39;22.80;37.40
36690;DHT22;22676;51.120;3.702;2023-04-03T14:49:12;22.80;37.20
36690;DHT22;22676;51.120;3.702;2023-04-03T14:51:39;22.80;37.50
36690;DHT22;22676;51.120;3.702;2023-04-03T14:54:05;22.80;36.90
36690;DHT22;22676;51.120;3.702;2023-04-03T14:56:31;22.80;37.20
36690;DHT22;22676;51.120;3.702;2023-04-03T14:58:58;22.80;36.50
36690;DHT22;22676;51.120;3.702;2023-04-03T15:01:24;22.90;37.20
36690;DHT22;22676;51.120;3.702;2023-04-03T15:03:50;22.80;36.50
36690;DHT22;22676;51.120;3.702;2023-04-03T15:06:16;22.80;36.70
36690;DHT22;22676;51.120;3.702;2023-04-03T15:08:42;22.80;37.10
36690;DHT22;22676;51.120;3.702;2023-04-03T15:11:09;22.80;37.50
36690;DHT22;22676;51.120;3.702;2023-04-03T15:13:35;22.80;37.00
36690;DHT22;22676;51.120;3.702;2023-04-03T15:16:00;22.80;36.60
36690;DHT22;22676;51.120;3.702;2023-04-03T15:18:26;22.90;37.30
36690;DHT22;22676;51.120;3.702;2023-04-03T15:20:52;22.90;36.90
36690;DHT22;22676;51.120;3.702;2023-04-03T15:23:18;22.90;36.90
36690;DHT22;22676;51.120;3.702;2023-04-03T15:25:45;22.90;36.90
36690;DHT22;22676;51.120;3.702;2023-04-03T15:28:17;22.80;37.00
36690;DHT22;22676;51.120;3.702;2023-04-03T15:30:43;22.90;37.20
36690;DHT22;22676;51.120;3.702;2023-04-03T15:33:08;22.80;36.80
36690;DHT22;22676;51.120;3.702;2023-04-03T15:35:35;22.60;37.00
36690;DHT22;22676;51.120;3.702;2023-04-03T15:38:00;22.70;37.40
36690;DHT22;22676;51.120;3.702;2023-04-03T15:40:26;22.60;37.20
36690;DHT22;22676;51.120;3.702;2023-04-03T15:42:51;22.60;37.40
36690;DHT22;22676;51.120;3.702;2023-04-03T15:45:17;22.60;37.40
36690;DHT22;22676;51.120;3.702;2023-04-03T15:47:42;22.60;37.60
36690;DHT22;22676;51.120;3.702;2023-04-03T15:50:08;22.40;37.80
36690;DHT22;22676;51.120;3.702;2023-04-03T15:52:34;22.40;37.90
36690;DHT22;22676;51.120;3.702;2023-04-03T15:55:00;22.50;38.20
36690;DHT22;22676;51.120;3.702;2023-04-03T15:57:25;22.40;37.70
36690;DHT22;22676;51.120;3.702;2023-04-03T15:59:52;22.30;38.10
36690;DHT22;22676;51.120;3.702;2023-04-03T16:02:17;22.30;38.40
36690;DHT22;22676;51.120;3.702;2023-04-03T16:04:43;22.50;38.20
36690;DHT22;22676;51.120;3.702;2023-04-03T16:07:09;22.40;38.20
36690;DHT22;22676;51.120;3.702;2023-04-03T16:09:35;22.50;38.10
36690;DHT22;22676;51.120;3.702;2023-04-03T16:12:00;22.40;38.00
36690;DHT22;22676;51.120;3.702;2023-04-03T16:14:27;22.50;38.00
36690;DHT22;22676;51.120;3.702;2023-04-03T16:16:55;22.40;38.00
36690;DHT22;22676;51.120;3.702;2023-04-03T16:19:21;22.60;37.80
36690;DHT22;22676;51.120;3.702;2023-04-03T16:21:46;22.70;37.90
36690;DHT22;22676;51.120;3.702;2023-04-03T16:24:12;22.60;37.80
36690;DHT22;22676;51.120;3.702;2023-04-03T16:26:37;22.50;38.10
36690;DHT22;22676;51.120;3.702;2023-04-03T16:29:03;22.50;38.10
36690;DHT22;22676;51.120;3.702;2023-04-03T16:31:29;22.60;38.10
36690;DHT22;22676;51.120;3.702;2023-04-03T16:33:55;22.50;38.10
36690;DHT22;22676;51.120;3.702;2023-04-03T16:36:21;22.60;38.10
36690;DHT22;22676;51.120;3.702;2023-04-03T16:38:47;22.60;37.80
36690;DHT22;22676;51.120;3.702;2023-04-03T16:41:12;22.50;37.60
36690;DHT22;22676;51.120;3.702;2023-04-03T16:43:38;22.60;37.90
36690;DHT22;22676;51.120;3.702;2023-04-03T16:46:03;22.70;37.80
36690;DHT22;22676;51.120;3.702;2023-04-03T16:48:29;22.80;37.70
36690;DHT22;22676;51.120;3.702;2023-04-03T16:50:55;22.80;37.60
36690;DHT22;22676;51.120;3.702;2023-04-03T16:53:21;22.70;37.50
36690;DHT22;22676;51.120;3.702;2023-04-03T16:55:47;22.70;37.90
36690;DHT22;22676;51.120;3.702;2023-04-03T16:58:12;22.70;37.70
36690;DHT22;22676;51.120;3.702;2023-04-03T17:00:38;22.70;37.80
36690;DHT22;22676;51.120;3.702;2023-04-03T17:03:03;22.80;37.70
36690;DHT22;22676;51.120;3.702;2023-04-03T17:05:29;23.00;37.50
36690;DHT22;22676;51.120;3.702;2023-04-03T17:07:55;23.00;37.20
36690;DHT22;22676;51.120;3.702;2023-04-03T17:10:21;22.90;37.40